Rock Rapids, IA

7:58 AM CDT on July 04, 2015 (GMT -0500)
Luverne | | Change Station
CLOSE
Current Station
Airport
Location: Luverne,
Elevation: 1430 ft
Nearby Weather Stations

Elev 1430 ft 43.62 °N, 96.21 °W | Updated 33 minutes ago

Clear
Clear
61 °F
Feels Like 61 °F
N
0
Wind Variable Wind from North

Today
High -- | Low -- °F
--% Chance of Precip.
Yesterday
High -- | Low -- °F
Precip. -- in
5:49 AM 9:08 PM
Waning Gibbous, 92% visible
Pressure 29.99 in
Visibility 2.5 miles
Clouds Clear
Dew Point 59 °F
Humidity 94%
Rainfall 0.00 in
Snow Depth Not available.
UV 1 out of 12
Pollen 5.10 out of 12
Air Quality Not available.
Flu Activity Not available.
METAR KLYV 041225Z AUTO 00000KT 2 1/2SM CLR 16/15 A2999 RMK AO2

More Conditions Fewer Conditions

Pressure 29.99 in
Visibility 2.5 miles
Clouds Clear
Dew Point 59 °F
Humidity 94%
Rainfall 0.00 in
Snow Depth Not available.
UV 1 out of 12
Pollen 5.10 out of 12
Air Quality Not available.
Flu Activity Not available.
METAR KLYV 041225Z AUTO 00000KT 2 1/2SM CLR 16/15 A2999 RMK AO2

More Conditions Fewer Conditions

10-Day Weather Forecast

×

Almanac

Astronomy

Jul. 04, 2015 Rise Set
Actual Time
Civil Twilight
Nautical Twilight
Astronomical Twilight
Moon
Length of Visible Light
Length of Day
Tomorrow will be .
, % of the Moon is Illuminated

Today's Extremes

State Highs State Lows

Community

WunderPhotos

Upload Photos

1,834,948 photos uploaded!

WunderBlogs® & News

Nearby

Air Quality

  Air Quality AQ Index Pollutant
Not available.

Snow Depth

Station Depth Elevation

Earthquake Activity

City Distance Mag. Time & Date
Minimum magnitude displayed is 2.5.

Coastal Water Temperatures

Place Temperature

Stations

Nearby Weather Stations

Station Location Temp. Windchill Dew Point Humidity Wind Precip. Elev Updated Type